Time;durP1;ratioP1;P1;durP2;ratioP2;P2;SDS_P1;SDS_P2;PMS_P1;PMS_P2;Temp;Humidity;BMP_temperature;BMP_pressure;BME280_temperature;BME280_humidity;BME280_pressure;Samples;Min_cycle;Max_cycle;Signal;HPM_P1;HPM_P2
2023/01/23 00:01:04;;;;;;;1.80;1.70;;;;;;;;;;5056990;28;20031;-31
2023/01/23 00:03:30;;;;;;;1.60;1.50;;;;;;;;;;5039067;28;20047;-31
2023/01/23 00:06:00;;;;;;;1.95;1.83;;;;;;;;;;5056300;28;20025;-30
2023/01/23 00:08:28;;;;;;;1.60;1.50;;;;;;;;;;5056158;28;20033;-31
2023/01/23 00:10:54;;;;;;;1.70;1.60;;;;;;;;;;5056535;28;20498;-31
2023/01/23 00:13:20;;;;;;;1.38;1.27;;;;;;;;;;5056364;28;20106;-31
2023/01/23 00:15:48;;;;;;;1.30;1.30;;;;;;;;;;5038607;28;20020;-30
2023/01/23 00:18:14;;;;;;;1.77;1.60;;;;;;;;;;5056014;28;20036;-30
2023/01/23 00:20:41;;;;;;;2.40;1.40;;;;;;;;;;5055976;28;20045;-32
2023/01/23 00:23:08;;;;;;;2.63;2.40;;;;;;;;;;5056007;28;20025;-31
2023/01/23 00:25:34;;;;;;;1.60;1.50;;;;;;;;;;5055931;28;20040;-30
2023/01/23 00:28:00;;;;;;;1.25;1.10;;;;;;;;;;5055802;28;20044;-32
2023/01/23 00:30:26;;;;;;;1.50;1.40;;;;;;;;;;5055858;28;20037;-31
2023/01/23 00:32:52;;;;;;;1.45;1.35;;;;;;;;;;5055732;28;20398;-31
2023/01/23 00:35:19;;;;;;;1.73;1.63;;;;;;;;;;5055687;28;20075;-30
2023/01/23 00:37:45;;;;;;;1.55;1.25;;;;;;;;;;5055615;28;20351;-32
2023/01/23 00:40:12;;;;;;;1.33;1.23;;;;;;;;;;5055584;28;20028;-30
2023/01/23 00:42:38;;;;;;;1.40;1.30;;;;;;;;;;5056152;28;20091;-32
2023/01/23 00:45:04;;;;;;;1.65;1.55;;;;;;;;;;5055812;28;20033;-32
2023/01/23 00:47:31;;;;;;;1.65;1.55;;;;;;;;;;5055399;28;20044;-30
2023/01/23 00:49:58;;;;;;;1.50;1.40;;;;;;;;;;5055750;28;20086;-30
2023/01/23 00:52:25;;;;;;;1.35;1.25;;;;;;;;;;5055116;28;20033;-30
2023/01/23 00:54:51;;;;;;;1.73;1.63;;;;;;;;;;5055950;28;20491;-31
2023/01/23 00:57:17;;;;;;;1.63;1.50;;;;;;;;;;5055307;28;20036;-33
2023/01/23 00:59:43;;;;;;;1.63;1.52;;;;;;;;;;5055465;28;20017;-31
2023/01/23 01:02:09;;;;;;;1.50;1.40;;;;;;;;;;5055214;28;20471;-32
2023/01/23 01:04:35;;;;;;;2.00;1.80;;;;;;;;;;5055172;28;20368;-30
2023/01/23 01:07:02;;;;;;;1.58;1.42;;;;;;;;;;5055081;28;20028;-30
2023/01/23 01:09:28;;;;;;;1.52;1.42;;;;;;;;;;5054982;28;20091;-31
2023/01/23 01:11:54;;;;;;;2.00;1.63;;;;;;;;;;5037455;28;20464;-30
2023/01/23 01:14:20;;;;;;;1.52;1.42;;;;;;;;;;5055299;28;20040;-30
2023/01/23 01:16:46;;;;;;;1.67;1.42;;;;;;;;;;5055042;28;20064;-31
2023/01/23 01:19:13;;;;;;;1.55;1.45;;;;;;;;;;5054912;28;20032;-32
2023/01/23 01:21:41;;;;;;;1.45;1.25;;;;;;;;;;5055588;28;20098;-30
2023/01/23 01:24:07;;;;;;;1.58;1.48;;;;;;;;;;5054860;28;20033;-29
2023/01/23 01:26:33;;;;;;;1.80;1.70;;;;;;;;;;5055103;28;20418;-34
2023/01/23 01:28:59;;;;;;;1.40;1.30;;;;;;;;;;5054845;28;20032;-30
2023/01/23 01:31:25;;;;;;;1.77;1.38;;;;;;;;;;5037095;28;20057;-30
2023/01/23 01:33:51;;;;;;;1.60;1.50;;;;;;;;;;5054703;28;20035;-30
2023/01/23 01:36:18;;;;;;;1.60;1.50;;;;;;;;;;5054682;28;20333;-30
2023/01/23 01:38:45;;;;;;;1.40;1.30;;;;;;;;;;5054623;28;20453;-30
2023/01/23 01:41:12;;;;;;;1.67;1.58;;;;;;;;;;5054933;28;20356;-31
2023/01/23 01:43:38;;;;;;;1.80;1.70;;;;;;;;;;5054575;28;20104;-32
2023/01/23 01:46:07;;;;;;;1.92;1.63;;;;;;;;;;5054883;28;20025;-34
2023/01/23 01:48:45;;;;;;;1.88;1.50;;;;;;;;;;5054524;28;20028;-32
2023/01/23 01:51:32;;;;;;;1.45;1.35;;;;;;;;;;5054769;28;20029;-31
2023/01/23 01:54:27;;;;;;;1.75;1.65;;;;;;;;;;5054356;28;20082;-30
2023/01/23 01:57:00;;;;;;;1.55;1.45;;;;;;;;;;5037498;28;20044;-34
2023/01/23 01:59:27;;;;;;;1.83;1.52;;;;;;;;;;5036819;28;20459;-31
2023/01/23 02:01:57;;;;;;;1.95;1.70;;;;;;;;;;5054398;28;20033;-32
2023/01/23 02:04:23;;;;;;;1.65;1.55;;;;;;;;;;5056760;28;20072;-29
2023/01/23 02:06:52;;;;;;;1.75;1.40;;;;;;;;;;5058592;28;20025;-31
2023/01/23 02:09:24;;;;;;;1.35;1.20;;;;;;;;;;5058547;28;20021;-30
2023/01/23 02:11:51;;;;;;;1.40;1.30;;;;;;;;;;5058368;28;20063;-30
2023/01/23 02:14:17;;;;;;;2.40;2.13;;;;;;;;;;5058667;28;20356;-30
2023/01/23 02:16:49;;;;;;;1.80;1.70;;;;;;;;;;5058665;28;20039;-30
2023/01/23 02:19:29;;;;;;;1.75;1.65;;;;;;;;;;5058588;28;20036;-30
2023/01/23 02:21:58;;;;;;;1.55;1.45;;;;;;;;;;5058865;28;20049;-30
2023/01/23 02:24:32;;;;;;;2.28;1.60;;;;;;;;;;5058795;28;20025;-30
2023/01/23 02:26:58;;;;;;;1.40;1.30;;;;;;;;;;5058964;28;20040;-30
2023/01/23 02:29:24;;;;;;;1.50;1.40;;;;;;;;;;5058131;28;20043;-31
2023/01/23 02:31:52;;;;;;;1.60;1.50;;;;;;;;;;5057998;28;20456;-32
2023/01/23 02:34:21;;;;;;;1.70;1.60;;;;;;;;;;5058018;28;20060;-31
2023/01/23 02:36:47;;;;;;;1.48;1.38;;;;;;;;;;5058268;28;20353;-30
2023/01/23 02:39:15;;;;;;;1.45;1.35;;;;;;;;;;5058162;28;20029;-30
2023/01/23 02:41:46;;;;;;;1.70;1.60;;;;;;;;;;5058226;28;20086;-30
2023/01/23 02:44:12;;;;;;;;;;;;;;;;;;5058594;28;20387;-32
2023/01/23 02:46:38;;;;;;;1.67;1.58;;;;;;;;;;5058381;28;19905;-31
2023/01/23 02:49:05;;;;;;;1.27;1.17;;;;;;;;;;5057988;28;20052;-30
2023/01/23 02:51:31;;;;;;;1.25;1.20;;;;;;;;;;5057705;28;20025;-30
2023/01/23 02:53:57;;;;;;;1.55;1.42;;;;;;;;;;5057956;28;20360;-30
2023/01/23 02:56:23;;;;;;;1.40;1.30;;;;;;;;;;5058451;28;20494;-31
2023/01/23 03:01:35;;;;;;;1.52;1.42;;;;;;;;;;5057604;28;20112;-30
2023/01/23 03:04:02;;;;;;;1.48;1.25;;;;;;;;;;5057767;28;20047;-32
2023/01/23 03:06:29;;;;;;;1.45;1.35;;;;;;;;;;5057450;28;20096;-31
2023/01/23 03:08:56;;;;;;;1.92;1.73;;;;;;;;;;5057609;28;20033;-30
2023/01/23 03:11:23;;;;;;;1.92;1.75;;;;;;;;;;5057246;28;20037;-30
2023/01/23 03:13:49;;;;;;;1.55;1.20;;;;;;;;;;5057296;28;20028;-32
2023/01/23 03:16:15;;;;;;;1.75;1.65;;;;;;;;;;5057413;28;20025;-31
2023/01/23 03:18:41;;;;;;;1.20;1.10;;;;;;;;;;5057176;28;20414;-30
2023/01/23 03:21:07;;;;;;;1.40;1.30;;;;;;;;;;5056977;28;20045;-33
2023/01/23 03:23:35;;;;;;;1.45;1.35;;;;;;;;;;5057111;28;20044;-30
2023/01/23 03:26:01;;;;;;;1.67;1.55;;;;;;;;;;5057068;28;20040;-30
2023/01/23 03:31:13;;;;;;;2.40;2.10;;;;;;;;;;5057278;28;20040;-33
2023/01/23 03:33:42;;;;;;;1.70;1.60;;;;;;;;;;5057713;28;20029;-31
2023/01/23 03:36:12;;;;;;;1.58;1.48;;;;;;;;;;5056871;28;20032;-32
2023/01/23 03:38:38;;;;;;;1.60;1.40;;;;;;;;;;5056755;28;20036;-31
2023/01/23 03:43:49;;;;;;;2.13;1.70;;;;;;;;;;5056843;28;20095;-31
2023/01/23 03:46:15;;;;;;;1.30;1.20;;;;;;;;;;5039651;28;20131;-32
2023/01/23 03:48:41;;;;;;;1.90;1.52;;;;;;;;;;5056881;28;20021;-32
2023/01/23 03:51:08;;;;;;;1.80;1.55;;;;;;;;;;5057204;28;20021;-31
2023/01/23 03:53:34;;;;;;;1.60;1.50;;;;;;;;;;5057023;28;20476;-30
2023/01/23 03:56:00;;;;;;;1.30;1.20;;;;;;;;;;5056805;28;20052;-35
2023/01/23 03:58:27;;;;;;;1.75;1.63;;;;;;;;;;5056376;28;20100;-31
2023/01/23 04:00:53;;;;;;;1.45;1.35;;;;;;;;;;5056701;28;20099;-31
2023/01/23 04:03:20;;;;;;;1.50;1.40;;;;;;;;;;5056435;28;20422;-31
2023/01/23 04:05:46;;;;;;;1.27;1.23;;;;;;;;;;5056386;28;20057;-30
2023/01/23 04:08:12;;;;;;;1.38;1.15;;;;;;;;;;5056461;28;20029;-31
2023/01/23 04:10:38;;;;;;;2.22;1.85;;;;;;;;;;5056262;28;20169;-31
2023/01/23 04:13:04;;;;;;;1.60;1.50;;;;;;;;;;5056116;28;20041;-32
2023/01/23 04:15:34;;;;;;;1.42;1.33;;;;;;;;;;5056514;28;20082;-32
2023/01/23 04:18:00;;;;;;;1.33;1.23;;;;;;;;;;5056331;28;20041;-30
2023/01/23 04:20:26;;;;;;;1.50;1.40;;;;;;;;;;5055986;28;20384;-33
2023/01/23 04:22:52;;;;;;;1.65;1.55;;;;;;;;;;5056293;28;20031;-31
2023/01/23 04:25:18;;;;;;;2.25;1.50;;;;;;;;;;5038465;28;20037;-30
2023/01/23 04:27:44;;;;;;;1.75;1.65;;;;;;;;;;5055211;28;20040;-31
2023/01/23 04:30:11;;;;;;;1.65;1.55;;;;;;;;;;5056161;28;20032;-30
2023/01/23 04:32:37;;;;;;;1.60;1.48;;;;;;;;;;5056039;28;20106;-31
2023/01/23 04:35:03;;;;;;;1.50;1.40;;;;;;;;;;5056316;28;20021;-30
2023/01/23 04:37:29;;;;;;;1.65;1.25;;;;;;;;;;5055694;28;20116;-30
2023/01/23 04:39:55;;;;;;;1.23;1.13;;;;;;;;;;5055847;28;20029;-31
2023/01/23 04:42:22;;;;;;;1.48;1.38;;;;;;;;;;5055572;28;20036;-30
2023/01/23 04:44:48;;;;;;;1.52;1.42;;;;;;;;;;5055740;28;20159;-32
2023/01/23 04:47:14;;;;;;;1.75;1.65;;;;;;;;;;5055992;28;20048;-29
2023/01/23 04:49:41;;;;;;;2.13;1.83;;;;;;;;;;5055521;28;20373;-31
2023/01/23 04:52:08;;;;;;;1.65;1.55;;;;;;;;;;5055268;28;20041;-29
2023/01/23 04:54:34;;;;;;;1.52;1.40;;;;;;;;;;5055236;28;20036;-29
2023/01/23 04:57:00;;;;;;;1.70;1.50;;;;;;;;;;5055513;28;20017;-30
2023/01/23 04:59:26;;;;;;;1.60;1.35;;;;;;;;;;5055052;28;20017;-34
2023/01/23 05:01:52;;;;;;;1.45;1.35;;;;;;;;;;5054907;28;20033;-30
2023/01/23 05:04:18;;;;;;;1.50;1.35;;;;;;;;;;5055044;28;20021;-30
2023/01/23 05:06:44;;;;;;;1.40;1.30;;;;;;;;;;5055370;28;20036;-31
2023/01/23 05:09:12;;;;;;;2.45;1.30;;;;;;;;;;5037317;28;20340;-31
2023/01/23 05:11:38;;;;;;;1.85;1.38;;;;;;;;;;5055081;28;20021;-31
2023/01/23 05:14:05;;;;;;;3.25;1.65;;;;;;;;;;5055160;28;20418;-30
2023/01/23 05:16:31;;;;;;;6.80;2.22;;;;;;;;;;5054960;28;20034;-31
2023/01/23 05:18:57;;;;;;;6.85;2.00;;;;;;;;;;5054608;28;20021;-33
2023/01/23 05:21:23;;;;;;;4.32;1.77;;;;;;;;;;5054521;28;20353;-31
2023/01/23 05:23:49;;;;;;;3.40;1.60;;;;;;;;;;5054766;28;20103;-32
2023/01/23 05:26:16;;;;;;;17.58;3.65;;;;;;;;;;5054602;28;20096;-30
2023/01/23 05:28:42;;;;;;;5.50;1.50;;;;;;;;;;5054921;28;20393;-34
2023/01/23 05:31:08;;;;;;;3.17;1.35;;;;;;;;;;5054622;28;20025;-31
2023/01/23 05:33:34;;;;;;;5.85;2.00;;;;;;;;;;5054424;28;20116;-35
2023/01/23 05:36:00;;;;;;;6.00;1.65;;;;;;;;;;5054508;28;20096;-31
2023/01/23 05:38:27;;;;;;;6.90;2.13;;;;;;;;;;5053435;28;20016;-33
2023/01/23 05:40:53;;;;;;;3.33;1.60;;;;;;;;;;5054360;28;20032;-32
2023/01/23 05:43:19;;;;;;;3.05;1.65;;;;;;;;;;5054329;28;20449;-30
2023/01/23 05:45:45;;;;;;;4.63;1.85;;;;;;;;;;5054266;28;20032;-32
2023/01/23 05:48:12;;;;;;;4.10;1.58;;;;;;;;;;5054415;28;20087;-31
2023/01/23 05:50:38;;;;;;;5.13;1.40;;;;;;;;;;5054238;28;20115;-31
2023/01/23 05:53:04;;;;;;;4.63;1.55;;;;;;;;;;5053995;28;20094;-33
2023/01/23 05:55:30;;;;;;;3.15;1.65;;;;;;;;;;5054584;28;20455;-31
2023/01/23 05:57:56;;;;;;;5.05;1.85;;;;;;;;;;5054335;28;20029;-31
2023/01/23 06:03:16;;;;;;;8.88;3.65;;;;;;;;;;5437591;22;20467;-30
2023/01/23 06:05:42;;;;;;;1.67;1.58;;;;;;;;;;5054737;28;20103;-31
2023/01/23 06:08:08;;;;;;;4.85;1.75;;;;;;;;;;5054545;28;20029;-31
2023/01/23 06:10:37;;;;;;;2.72;1.50;;;;;;;;;;5054091;28;20040;-31
2023/01/23 06:13:03;;;;;;;2.65;1.73;;;;;;;;;;5054169;28;20374;-32
2023/01/23 06:15:29;;;;;;;4.50;1.70;;;;;;;;;;5054499;28;20017;-31
2023/01/23 06:17:55;;;;;;;14.98;2.10;;;;;;;;;;5054388;28;20038;-31
2023/01/23 06:20:21;;;;;;;7.00;2.60;;;;;;;;;;5054637;28;20056;-32
2023/01/23 06:22:47;;;;;;;10.38;2.53;;;;;;;;;;5053955;28;20456;-32
2023/01/23 06:25:14;;;;;;;9.35;2.35;;;;;;;;;;5053949;28;20021;-32
2023/01/23 06:27:40;;;;;;;8.15;1.60;;;;;;;;;;5054276;28;20100;-33
2023/01/23 06:30:06;;;;;;;6.57;1.73;;;;;;;;;;5054399;28;20412;-31
2023/01/23 06:32:33;;;;;;;6.05;1.90;;;;;;;;;;5053753;28;20029;-32
2023/01/23 06:34:59;;;;;;;6.45;1.67;;;;;;;;;;5053734;28;20032;-31
2023/01/23 06:37:25;;;;;;;2.17;1.40;;;;;;;;;;5053744;28;20108;-33
2023/01/23 06:39:51;;;;;;;3.72;2.13;;;;;;;;;;5053830;28;20029;-30
2023/01/23 06:42:17;;;;;;;14.60;2.03;;;;;;;;;;5053707;28;20025;-31
2023/01/23 06:44:43;;;;;;;5.63;1.80;;;;;;;;;;5054222;28;20025;-33
2023/01/23 06:47:09;;;;;;;4.10;1.90;;;;;;;;;;5054355;28;20025;-32
2023/01/23 06:49:36;;;;;;;9.13;2.20;;;;;;;;;;5053949;28;20029;-31
2023/01/23 06:52:02;;;;;;;4.43;1.70;;;;;;;;;;5057614;28;20032;-32
2023/01/23 06:54:28;;;;;;;12.27;2.30;;;;;;;;;;5057791;28;20024;-31
2023/01/23 06:56:54;;;;;;;5.28;1.92;;;;;;;;;;5057875;28;20028;-32
2023/01/23 06:59:20;;;;;;;6.55;1.75;;;;;;;;;;5057890;28;20316;-31
2023/01/23 07:01:47;;;;;;;5.03;1.65;;;;;;;;;;5057193;28;20060;-31
2023/01/23 07:04:13;;;;;;;7.45;2.28;;;;;;;;;;5057059;28;20084;-32
2023/01/23 07:06:39;;;;;;;9.95;2.45;;;;;;;;;;5057082;28;20082;-31
2023/01/23 07:09:05;;;;;;;5.68;1.67;;;;;;;;;;5057239;28;20037;-31
2023/01/23 07:11:32;;;;;;;11.27;2.10;;;;;;;;;;5057307;28;20414;-31
2023/01/23 07:13:58;;;;;;;4.22;2.00;;;;;;;;;;5056903;28;20025;-32
2023/01/23 07:16:24;;;;;;;6.65;1.95;;;;;;;;;;5057345;28;20024;-32
2023/01/23 07:18:50;;;;;;;4.07;1.80;;;;;;;;;;5057126;28;20052;-31
2023/01/23 07:21:17;;;;;;;6.43;2.15;;;;;;;;;;5056975;28;20033;-33
2023/01/23 07:23:43;;;;;;;6.40;2.40;;;;;;;;;;5056797;28;20037;-31
2023/01/23 07:26:10;;;;;;;8.98;2.33;;;;;;;;;;5056944;28;20479;-33
2023/01/23 07:28:36;;;;;;;7.78;2.22;;;;;;;;;;5058104;28;20029;-33
2023/01/23 07:31:03;;;;;;;7.60;2.25;;;;;;;;;;5057020;28;20033;-33
2023/01/23 07:33:29;;;;;;;4.40;2.17;;;;;;;;;;5056635;28;20039;-31
2023/01/23 07:35:55;;;;;;;5.85;2.28;;;;;;;;;;5056723;28;20021;-32
2023/01/23 07:38:24;;;;;;;10.57;2.65;;;;;;;;;;5056686;28;20407;-32
2023/01/23 07:40:51;;;;;;;9.20;2.85;;;;;;;;;;5056876;28;20013;-31
2023/01/23 07:43:18;;;;;;;7.07;2.88;;;;;;;;;;5057359;28;20025;-32
2023/01/23 07:45:44;;;;;;;14.27;3.03;;;;;;;;;;5056561;28;20032;-33
2023/01/23 07:48:10;;;;;;;7.55;2.30;;;;;;;;;;5056604;28;20079;-32
2023/01/23 07:50:36;;;;;;;3.22;2.10;;;;;;;;;;5056445;28;20032;-31
2023/01/23 07:53:03;;;;;;;10.57;2.88;;;;;;;;;;5056337;28;20037;-32
2023/01/23 07:55:29;;;;;;;14.02;2.83;;;;;;;;;;5056173;28;20025;-33
2023/01/23 07:57:56;;;;;;;6.18;2.22;;;;;;;;;;5056258;28;20087;-33
2023/01/23 08:00:22;;;;;;;13.80;2.40;;;;;;;;;;5056549;28;20040;-33
2023/01/23 08:02:48;;;;;;;4.15;1.92;;;;;;;;;;5054869;28;20057;-32
2023/01/23 08:05:15;;;;;;;7.88;2.30;;;;;;;;;;5056152;28;20067;-33
2023/01/23 08:07:41;;;;;;;4.47;1.90;;;;;;;;;;5056503;28;20477;-32
2023/01/23 08:10:07;;;;;;;2.83;1.63;;;;;;;;;;5056399;28;20343;-33
2023/01/23 08:12:34;;;;;;;4.18;1.90;;;;;;;;;;5056237;28;20398;-32
2023/01/23 08:15:00;;;;;;;3.45;1.70;;;;;;;;;;5055980;28;20036;-31
2023/01/23 08:17:26;;;;;;;9.02;1.98;;;;;;;;;;5055773;28;20025;-32
2023/01/23 08:19:52;;;;;;;6.35;1.98;;;;;;;;;;5055834;28;20036;-31
2023/01/23 08:22:18;;;;;;;8.60;1.80;;;;;;;;;;5056273;28;20336;-30
2023/01/23 08:24:45;;;;;;;4.60;1.80;;;;;;;;;;5055763;28;20096;-33
2023/01/23 08:27:11;;;;;;;7.00;2.10;;;;;;;;;;5055691;28;20021;-30
2023/01/23 08:29:37;;;;;;;9.57;2.65;;;;;;;;;;5055979;28;20454;-31
2023/01/23 08:32:03;;;;;;;11.70;2.88;;;;;;;;;;5055486;28;20029;-30
2023/01/23 08:34:29;;;;;;;6.00;2.60;;;;;;;;;;5055794;28;20071;-30
2023/01/23 08:36:55;;;;;;;12.05;3.67;;;;;;;;;;5055458;28;20482;-31
2023/01/23 08:39:23;;;;;;;12.93;2.72;;;;;;;;;;5056154;28;20059;-31
2023/01/23 08:41:49;;;;;;;23.88;2.63;;;;;;;;;;5055374;28;20363;-32
2023/01/23 08:44:16;;;;;;;8.13;2.70;;;;;;;;;;5055227;28;20123;-32
2023/01/23 08:46:43;;;;;;;8.73;2.30;;;;;;;;;;5055316;28;20135;-32
2023/01/23 08:49:09;;;;;;;10.27;3.13;;;;;;;;;;5055333;28;20119;-31
2023/01/23 08:51:35;;;;;;;8.43;2.72;;;;;;;;;;5055380;28;20029;-32
2023/01/23 08:54:02;;;;;;;11.80;2.22;;;;;;;;;;5055246;28;20368;-33
2023/01/23 08:56:28;;;;;;;10.75;2.70;;;;;;;;;;5055057;28;20475;-32
2023/01/23 08:58:54;;;;;;;17.98;3.58;;;;;;;;;;5055542;28;20025;-32
2023/01/23 09:01:24;;;;;;;11.40;2.42;;;;;;;;;;5055095;28;20023;-31
2023/01/23 09:03:51;;;;;;;14.57;2.47;;;;;;;;;;5055024;28;20040;-32
2023/01/23 09:06:18;;;;;;;21.20;3.30;;;;;;;;;;5037556;28;20025;-33
2023/01/23 09:08:45;;;;;;;4.75;1.95;;;;;;;;;;5054956;28;20033;-32
2023/01/23 09:11:11;;;;;;;14.73;3.03;;;;;;;;;;5037726;28;20422;-33
2023/01/23 09:13:38;;;;;;;13.60;2.40;;;;;;;;;;5054395;28;20459;-33
2023/01/23 09:16:09;;;;;;;12.52;2.83;;;;;;;;;;5055049;28;20032;-33
2023/01/23 09:18:35;;;;;;;;;;;;;;;;;;5055602;28;20020;-32
2023/01/23 09:21:06;;;;;;;9.07;3.90;;;;;;;;;;5055015;28;19987;-32
2023/01/23 09:23:32;;;;;;;18.25;3.25;;;;;;;;;;5054900;28;20516;-31
2023/01/23 09:26:09;;;;;;;16.02;2.63;;;;;;;;;;5054908;28;20032;-31
2023/01/23 09:28:35;;;;;;;9.98;2.92;;;;;;;;;;5054763;28;20041;-32
2023/01/23 09:31:03;;;;;;;15.50;2.55;;;;;;;;;;5054522;28;20063;-32
2023/01/23 09:33:29;;;;;;;16.33;2.63;;;;;;;;;;5054292;28;20029;-32
2023/01/23 09:35:56;;;;;;;8.40;2.05;;;;;;;;;;5054338;28;20032;-31
2023/01/23 09:38:22;;;;;;;7.07;2.67;;;;;;;;;;5054165;28;20033;-32
2023/01/23 09:40:50;;;;;;;12.52;3.25;;;;;;;;;;5054644;28;20325;-31
2023/01/23 09:43:22;;;;;;;10.15;2.75;;;;;;;;;;5054572;28;20063;-31
2023/01/23 09:46:11;;;;;;;14.75;2.80;;;;;;;;;;5054418;28;20029;-31
2023/01/23 09:48:38;;;;;;;18.23;2.30;;;;;;;;;;5044097;28;20036;-31
2023/01/23 09:51:10;;;;;;;10.63;2.20;;;;;;;;;;5054378;28;20100;-31
2023/01/23 09:53:38;;;;;;;12.82;2.30;;;;;;;;;;5054384;28;20039;-31
2023/01/23 09:56:04;;;;;;;10.98;2.50;;;;;;;;;;5054592;28;20389;-31
2023/01/23 09:58:49;;;;;;;5.82;3.08;;;;;;;;;;5054291;28;20029;-32
2023/01/23 10:01:15;;;;;;;23.50;3.25;;;;;;;;;;5054520;28;20033;-32
2023/01/23 10:03:41;;;;;;;17.13;2.78;;;;;;;;;;5054006;28;20054;-32
2023/01/23 10:06:14;;;;;;;35.63;5.50;;;;;;;;;;5054483;28;20076;-31
2023/01/23 10:08:57;;;;;;;113.40;12.20;;;;;;;;;;5054593;28;20029;-31
2023/01/23 10:11:32;;;;;;;84.57;11.25;;;;;;;;;;5054199;28;20029;-31
2023/01/23 10:14:07;;;;;;;60.28;8.50;;;;;;;;;;5054425;28;20316;-31
2023/01/23 10:16:50;;;;;;;95.97;11.13;;;;;;;;;;5054393;28;20055;-31
2023/01/23 10:19:22;;;;;;;90.35;9.63;;;;;;;;;;5054066;28;20456;-32
2023/01/23 10:21:55;;;;;;;62.08;7.15;;;;;;;;;;5054093;28;20025;-31
2023/01/23 10:24:21;;;;;;;19.92;4.53;;;;;;;;;;5054036;28;20060;-30
2023/01/23 10:26:47;;;;;;;51.63;6.97;;;;;;;;;;5057835;28;20025;-31
2023/01/23 10:29:18;;;;;;;47.15;7.78;;;;;;;;;;5057866;28;20113;-31
2023/01/23 10:31:47;;;;;;;27.13;3.58;;;;;;;;;;5058378;28;20056;-33
2023/01/23 10:34:19;;;;;;;77.45;7.93;;;;;;;;;;5058143;28;20392;-33
2023/01/23 10:37:00;;;;;;;59.10;8.15;;;;;;;;;;5058130;28;20108;-32
2023/01/23 10:39:27;;;;;;;108.63;12.25;;;;;;;;;;5058092;28;20116;-32
2023/01/23 10:41:53;;;;;;;96.38;9.50;;;;;;;;;;5057697;28;20040;-33
2023/01/23 10:44:21;;;;;;;129.75;13.75;;;;;;;;;;5057632;28;20036;-32
2023/01/23 10:46:48;;;;;;;74.05;10.13;;;;;;;;;;5057703;28;20039;-32
2023/01/23 10:49:50;;;;;;;65.03;8.13;;;;;;;;;;5057864;28;20037;-31
2023/01/23 10:52:35;;;;;;;23.98;4.57;;;;;;;;;;4976868;28;20501;-31
2023/01/23 10:55:02;;;;;;;36.38;7.32;;;;;;;;;;5052254;28;20513;-31
2023/01/23 10:57:30;;;;;;;19.02;4.53;;;;;;;;;;5057518;28;20033;-32
2023/01/23 11:00:03;;;;;;;24.73;4.80;;;;;;;;;;5057479;28;20108;-31
2023/01/23 11:02:30;;;;;;;12.75;3.80;;;;;;;;;;5057398;28;20048;-33
2023/01/23 11:04:56;;;;;;;12.40;2.97;;;;;;;;;;5057093;28;20452;-32
2023/01/23 11:07:27;;;;;;;15.57;3.90;;;;;;;;;;5057121;28;20057;-33
2023/01/23 11:09:55;;;;;;;14.57;3.15;;;;;;;;;;5057535;28;20059;-32
2023/01/23 11:12:21;;;;;;;13.80;3.03;;;;;;;;;;5056907;28;20082;-33
2023/01/23 11:14:47;;;;;;;15.52;3.03;;;;;;;;;;5057384;28;20029;-32
2023/01/23 11:17:24;;;;;;;14.23;3.00;;;;;;;;;;5057156;28;20031;-32
2023/01/23 11:19:53;;;;;;;15.43;3.72;;;;;;;;;;5057171;28;20025;-32
2023/01/23 11:22:39;;;;;;;8.57;3.17;;;;;;;;;;5056794;28;20039;-32
2023/01/23 11:25:35;;;;;;;22.58;4.40;;;;;;;;;;5056993;28;20043;-31
2023/01/23 11:28:03;;;;;;;18.10;4.10;;;;;;;;;;5040036;28;20040;-30
2023/01/23 11:30:46;;;;;;;15.95;3.60;;;;;;;;;;5056999;28;20041;-30
2023/01/23 11:33:13;;;;;;;12.18;4.28;;;;;;;;;;5056646;28;20115;-31
2023/01/23 11:36:06;;;;;;;17.42;5.00;;;;;;;;;;5056773;28;20024;-31
2023/01/23 11:38:52;;;;;;;20.50;4.57;;;;;;;;;;5052576;28;20044;-31
2023/01/23 11:41:19;;;;;;;20.48;3.90;;;;;;;;;;5056891;28;20100;-32
2023/01/23 11:43:45;;;;;;;20.20;4.28;;;;;;;;;;5057048;28;20064;-33
2023/01/23 11:46:11;;;;;;;19.55;3.92;;;;;;;;;;5056466;28;20036;-32
2023/01/23 11:49:05;;;;;;;13.70;3.13;;;;;;;;;;5056988;28;20048;-32
2023/01/23 11:51:31;;;;;;;16.08;3.35;;;;;;;;;;5056765;28;20021;-32
2023/01/23 11:53:57;;;;;;;17.73;4.05;;;;;;;;;;5056446;28;20029;-33
2023/01/23 11:56:34;;;;;;;9.88;3.03;;;;;;;;;;5056628;28;20036;-31
2023/01/23 11:59:00;;;;;;;21.38;5.72;;;;;;;;;;5056579;28;20045;-32
2023/01/23 12:01:32;;;;;;;31.65;3.10;;;;;;;;;;5056180;28;20025;-32
2023/01/23 12:04:04;;;;;;;16.30;3.72;;;;;;;;;;5056575;28;20053;-32
2023/01/23 12:06:51;;;;;;;14.70;2.95;;;;;;;;;;5056846;28;20028;-32
2023/01/23 12:09:19;;;;;;;15.30;3.28;;;;;;;;;;5042507;28;20033;-31
2023/01/23 12:12:08;;;;;;;14.02;3.30;;;;;;;;;;5056498;28;20027;-32
2023/01/23 12:14:39;;;;;;;15.23;3.10;;;;;;;;;;5056309;28;20029;-30
2023/01/23 12:17:07;;;;;;;;;;;;;;;;;;5038869;28;20025;-33
2023/01/23 12:19:48;;;;;;;19.83;3.03;;;;;;;;;;5056189;28;19912;-31
2023/01/23 12:22:14;;;;;;;;;;;;;;;;;;5056271;28;20020;-33
2023/01/23 12:24:52;;;;;;;23.52;4.88;;;;;;;;;;5055900;28;19915;-32
2023/01/23 12:27:25;;;;;;;25.35;4.15;;;;;;;;;;5056425;28;20025;-33
2023/01/23 12:30:00;;;;;;;14.55;3.95;;;;;;;;;;5055817;28;20101;-33
2023/01/23 12:32:43;;;;;;;15.57;4.20;;;;;;;;;;5055838;28;20033;-34
2023/01/23 12:35:12;;;;;;;17.50;3.58;;;;;;;;;;5056013;28;20021;-33
2023/01/23 12:37:58;;;;;;;18.75;4.55;;;;;;;;;;5055671;28;20025;-31
2023/01/23 12:40:28;;;;;;;11.73;2.92;;;;;;;;;;5042123;28;20506;-31
2023/01/23 12:42:54;;;;;;;20.95;4.15;;;;;;;;;;5055721;28;20021;-31
2023/01/23 12:45:20;;;;;;;20.13;3.58;;;;;;;;;;5056015;28;20025;-31
2023/01/23 12:48:05;;;;;;;6.20;3.47;;;;;;;;;;5055105;28;20392;-32
2023/01/23 12:50:44;;;;;;;13.20;3.55;;;;;;;;;;5055667;28;20111;-32
2023/01/23 12:53:15;;;;;;;12.25;3.47;;;;;;;;;;5055481;28;20037;-31
2023/01/23 12:55:50;;;;;;;9.80;2.92;;;;;;;;;;5055280;28;20078;-31
2023/01/23 12:58:18;;;;;;;29.60;3.50;;;;;;;;;;5055166;28;20049;-32
2023/01/23 13:00:59;;;;;;;10.10;3.13;;;;;;;;;;5055486;28;20021;-32
2023/01/23 13:03:25;;;;;;;15.52;4.38;;;;;;;;;;5054867;28;20525;-32
2023/01/23 13:06:00;;;;;;;11.88;4.05;;;;;;;;;;5037459;28;20048;-33
2023/01/23 13:08:26;;;;;;;13.13;3.00;;;;;;;;;;5055573;28;20028;-32
2023/01/23 13:13:46;;;;;;;10.80;2.85;;;;;;;;;;5054930;28;20047;-32
2023/01/23 13:16:13;;;;;;;15.10;3.17;;;;;;;;;;5054947;28;20108;-31
2023/01/23 13:27:27;;;;;;;7.15;3.50;;;;;;;;;;5055175;28;20132;-33
2023/01/23 13:29:54;;;;;;;19.60;3.13;;;;;;;;;;5054761;28;20033;-31
2023/01/23 13:32:22;;;;;;;16.80;3.78;;;;;;;;;;5054840;28;20086;-32
2023/01/23 13:34:48;;;;;;;15.02;3.38;;;;;;;;;;5054897;28;20033;-32
2023/01/23 13:37:33;;;;;;;25.70;5.30;;;;;;;;;;5054793;28;20159;-32
2023/01/23 13:40:25;;;;;;;16.50;4.93;;;;;;;;;;5054634;28;20470;-31
2023/01/23 13:42:52;;;;;;;12.00;3.22;;;;;;;;;;5050990;28;20345;-32
2023/01/23 13:45:25;;;;;;;25.98;6.22;;;;;;;;;;5054806;28;20360;-31
2023/01/23 13:51:01;;;;;;;24.27;4.85;;;;;;;;;;5054530;28;20086;-31
2023/01/23 13:56:38;;;;;;;17.90;3.60;;;;;;;;;;5054357;28;20414;-32
2023/01/23 13:59:08;;;;;;;8.85;2.65;;;;;;;;;;5054465;28;20044;-32
2023/01/23 14:05:13;;;;;;;21.38;4.93;;;;;;;;;;4974339;28;20051;-31
2023/01/23 14:07:48;;;;;;;14.70;3.88;;;;;;;;;;4973974;28;20027;-31
2023/01/23 14:10:20;;;;;;;17.73;3.92;;;;;;;;;;5031401;28;20428;-31
2023/01/23 14:12:47;;;;;;;20.65;4.13;;;;;;;;;;5054372;28;20459;-31
2023/01/23 14:18:24;;;;;;;12.68;3.25;;;;;;;;;;5054473;28;20048;-32
2023/01/23 14:20:50;;;;;;;18.00;4.25;;;;;;;;;;5054771;28;20021;-31
2023/01/23 14:23:37;;;;;;;22.92;3.88;;;;;;;;;;5054078;28;20463;-31
2023/01/23 14:26:04;;;;;;;26.83;4.65;;;;;;;;;;5054102;28;20025;-32
2023/01/23 14:28:30;;;;;;;18.75;4.40;;;;;;;;;;5054044;28;20040;-31
2023/01/23 14:30:57;;;;;;;12.18;3.75;;;;;;;;;;5054070;28;20041;-31
2023/01/23 14:33:24;;;;;;;14.68;3.28;;;;;;;;;;5053808;28;20032;-33
2023/01/23 14:35:51;;;;;;;17.80;3.47;;;;;;;;;;5054061;28;20025;-32
2023/01/23 14:38:23;;;;;;;12.40;3.28;;;;;;;;;;5054278;28;20112;-32
2023/01/23 14:40:50;;;;;;;17.55;3.85;;;;;;;;;;5054277;28;20436;-32
2023/01/23 14:43:18;;;;;;;18.52;3.97;;;;;;;;;;5053924;28;20029;-31
2023/01/23 14:45:47;;;;;;;25.27;3.67;;;;;;;;;;5053677;28;20037;-33
2023/01/23 14:48:15;;;;;;;17.00;3.67;;;;;;;;;;5053866;28;20052;-32
2023/01/23 14:50:41;;;;;;;14.85;3.85;;;;;;;;;;5053845;28;20029;-33
2023/01/23 14:53:12;;;;;;;17.45;3.92;;;;;;;;;;5053665;28;20033;-32
2023/01/23 14:55:40;;;;;;;19.98;3.45;;;;;;;;;;5054381;28;20152;-33
2023/01/23 14:58:10;;;;;;;13.70;4.07;;;;;;;;;;5054023;28;20355;-32
2023/01/23 15:00:36;;;;;;;16.52;6.30;;;;;;;;;;5036125;28;20463;-33
2023/01/23 15:03:03;;;;;;;20.17;3.80;;;;;;;;;;5053470;28;20044;-31
2023/01/23 15:05:31;;;;;;;11.63;4.50;;;;;;;;;;5053779;28;20047;-32
2023/01/23 15:08:01;;;;;;;18.63;3.58;;;;;;;;;;5054001;28;20040;-30
2023/01/23 15:10:35;;;;;;;11.93;3.25;;;;;;;;;;5053912;28;20130;-31
2023/01/23 15:13:02;;;;;;;10.52;3.05;;;;;;;;;;5057308;28;20359;-32
2023/01/23 15:15:30;;;;;;;15.95;3.60;;;;;;;;;;5057180;28;20463;-31
2023/01/23 15:17:57;;;;;;;21.98;4.43;;;;;;;;;;5057699;28;20108;-31
2023/01/23 15:20:39;;;;;;;25.02;3.95;;;;;;;;;;5057129;28;20029;-32
2023/01/23 15:23:18;;;;;;;19.38;3.90;;;;;;;;;;5057334;28;20394;-32